This is the latest recevied weather packets stored in our database for station/object N1NCB-3. If no packets are shown the sender has not sent any weather packets the latest 1 day(s).
| Time | Temp. | Humidity | Pressure | Rain* | Wind** | Luminosity | Snow |
|---|---|---|---|---|---|---|---|
| 1778170873 | 15° C | 74% | 1001.6 hPa | 0 mm | - | - | - |
| 1778167275 | 13.33° C | 77% | 1002 hPa | 0 mm | - | - | - |
| 1778166372 | 13.33° C | 75% | 1002.3 hPa | 0 mm | - | - | - |
| 1778166072 | 12.78° C | 75% | 1002 hPa | 0 mm | - | - | - |
| 1778163372 | 11.67° C | 88% | 1002.7 hPa | 0 mm | - | - | - |
| 1778161872 | 10.56° C | 93% | 1002.7 hPa | 0 mm | - | - | - |
| 1778161572 | 10.56° C | 93% | 1002.7 hPa | 0 mm | - | - | - |
| 1778161275 | 10.56° C | 93% | 1002.7 hPa | 0 mm | - | - | - |
| 1778160672 | 10° C | 93% | 1003 hPa | 0 mm | - | - | - |
| 1778160072 | 9.44° C | 93% | 1003 hPa | 0 mm | - | - | - |
| 1778159173 | 8.89° C | 93% | 1003 hPa | 0 mm | - | - | - |
| 1778154972 | 8.33° C | 93% | 1003 hPa | 0 mm | - | - | - |
| 1778150173 | 7.78° C | 93% | 1003.3 hPa | 0 mm | - | - | - |
| 1778147473 | 7.78° C | 93% | 1002.7 hPa | 0 mm | - | - | - |
| 1778144773 | 8.33° C | 93% | 1002.7 hPa | 0 mm | - | - | - |
| 1778142373 | 8.89° C | 93% | 1002 hPa | 0 mm | - | - | - |
| 1778141475 | 8.89° C | 93% | 1002.7 hPa | 0 mm | - | - | - |
| 1778140573 | 8.89° C | 93% | 1002.3 hPa | 0 mm | - | - | - |
| 1778140273 | 9.44° C | 93% | 1002 hPa | 0 mm | - | - | - |
| 1778138473 | 9.44° C | 92% | 1002 hPa | 0 mm | - | - | - |
| 1778138176 | 9.44° C | 92% | 1002 hPa | 0 mm | - | - | - |
| 1778137873 | 9.44° C | 92% | 1001.6 hPa | 0 mm | - | - | - |
| 1778137577 | 9.44° C | 92% | 1001.6 hPa | 0 mm | - | - | - |
| 1778136673 | 9.44° C | 92% | 1001.6 hPa | 0 mm | - | - | - |
| 1778136373 | 10° C | 92% | 1001.6 hPa | 0 mm | - | - | - |
* Rain latest hour (hover to see other rain measurements)
** Current wind speed in m/s (hover to see current wind gust speed)